sensor_id;sensor_type;location;lat;lon;timestamp;temperature;humidity
37002;DHT22;22913;51.910;8.374;2023-04-24T00:02:13;11.90;99.90
37002;DHT22;22913;51.910;8.374;2023-04-24T00:04:58;11.90;99.90
37002;DHT22;22913;51.910;8.374;2023-04-24T00:07:47;11.90;99.90
37002;DHT22;22913;51.910;8.374;2023-04-24T00:10:34;11.90;99.90
37002;DHT22;22913;51.910;8.374;2023-04-24T00:13:20;11.90;99.90
37002;DHT22;22913;51.910;8.374;2023-04-24T00:16:06;11.80;99.90
37002;DHT22;22913;51.910;8.374;2023-04-24T00:18:52;11.80;99.90
37002;DHT22;22913;51.910;8.374;2023-04-24T00:21:38;11.80;99.90
37002;DHT22;22913;51.910;8.374;2023-04-24T00:24:25;11.80;99.90
37002;DHT22;22913;51.910;8.374;2023-04-24T00:27:18;11.70;99.90
37002;DHT22;22913;51.910;8.374;2023-04-24T00:30:05;11.70;99.90
37002;DHT22;22913;51.910;8.374;2023-04-24T00:32:50;11.70;99.90
37002;DHT22;22913;51.910;8.374;2023-04-24T00:35:36;11.80;99.90
37002;DHT22;22913;51.910;8.374;2023-04-24T00:38:22;11.80;99.90
37002;DHT22;22913;51.910;8.374;2023-04-24T00:41:08;11.90;99.90
37002;DHT22;22913;51.910;8.374;2023-04-24T00:43:55;11.90;99.90
37002;DHT22;22913;51.910;8.374;2023-04-24T00:46:41;11.90;99.90
37002;DHT22;22913;51.910;8.374;2023-04-24T00:49:27;11.90;99.90
37002;DHT22;22913;51.910;8.374;2023-04-24T00:52:13;11.90;99.90
37002;DHT22;22913;51.910;8.374;2023-04-24T00:55:01;11.90;99.90
37002;DHT22;22913;51.910;8.374;2023-04-24T00:57:48;11.80;99.90
37002;DHT22;22913;51.910;8.374;2023-04-24T01:00:35;11.80;99.90
37002;DHT22;22913;51.910;8.374;2023-04-24T01:03:22;11.80;99.90
37002;DHT22;22913;51.910;8.374;2023-04-24T01:06:08;11.80;99.90
37002;DHT22;22913;51.910;8.374;2023-04-24T01:08:54;11.80;99.90
37002;DHT22;22913;51.910;8.374;2023-04-24T01:11:41;11.80;99.90
37002;DHT22;22913;51.910;8.374;2023-04-24T01:14:27;11.70;99.90
37002;DHT22;22913;51.910;8.374;2023-04-24T01:17:14;11.80;99.90
37002;DHT22;22913;51.910;8.374;2023-04-24T01:20:01;11.80;99.90
37002;DHT22;22913;51.910;8.374;2023-04-24T01:22:51;11.80;99.90
37002;DHT22;22913;51.910;8.374;2023-04-24T01:25:37;11.70;99.90
37002;DHT22;22913;51.910;8.374;2023-04-24T01:28:23;11.70;99.90
37002;DHT22;22913;51.910;8.374;2023-04-24T01:31:08;11.70;99.90
37002;DHT22;22913;51.910;8.374;2023-04-24T01:33:54;11.70;99.90
37002;DHT22;22913;51.910;8.374;2023-04-24T01:36:41;11.60;99.90
37002;DHT22;22913;51.910;8.374;2023-04-24T01:39:29;11.50;99.90
37002;DHT22;22913;51.910;8.374;2023-04-24T01:42:16;11.40;99.90
37002;DHT22;22913;51.910;8.374;2023-04-24T01:45:03;11.40;99.90
37002;DHT22;22913;51.910;8.374;2023-04-24T01:47:50;11.30;99.90
37002;DHT22;22913;51.910;8.374;2023-04-24T01:50:36;11.20;99.90
37002;DHT22;22913;51.910;8.374;2023-04-24T01:53:22;11.20;99.90
37002;DHT22;22913;51.910;8.374;2023-04-24T01:56:09;11.10;99.90
37002;DHT22;22913;51.910;8.374;2023-04-24T01:58:55;11.00;99.90
37002;DHT22;22913;51.910;8.374;2023-04-24T02:01:41;11.00;99.90
37002;DHT22;22913;51.910;8.374;2023-04-24T02:04:27;11.00;99.90
37002;DHT22;22913;51.910;8.374;2023-04-24T02:07:13;11.00;99.90
37002;DHT22;22913;51.910;8.374;2023-04-24T02:09:59;10.90;99.90
37002;DHT22;22913;51.910;8.374;2023-04-24T02:12:45;10.90;99.90
37002;DHT22;22913;51.910;8.374;2023-04-24T02:15:31;10.80;99.90
37002;DHT22;22913;51.910;8.374;2023-04-24T02:18:17;10.80;99.90
37002;DHT22;22913;51.910;8.374;2023-04-24T02:21:03;10.70;99.90
37002;DHT22;22913;51.910;8.374;2023-04-24T02:23:48;10.70;99.90
37002;DHT22;22913;51.910;8.374;2023-04-24T02:26:34;10.70;99.90
37002;DHT22;22913;51.910;8.374;2023-04-24T02:29:21;10.70;99.90
37002;DHT22;22913;51.910;8.374;2023-04-24T02:32:07;10.70;99.90
37002;DHT22;22913;51.910;8.374;2023-04-24T02:34:55;10.60;99.90
37002;DHT22;22913;51.910;8.374;2023-04-24T02:37:41;10.70;99.90
37002;DHT22;22913;51.910;8.374;2023-04-24T02:40:27;10.60;99.90
37002;DHT22;22913;51.910;8.374;2023-04-24T02:43:12;10.60;99.90
37002;DHT22;22913;51.910;8.374;2023-04-24T02:45:59;10.60;99.90
37002;DHT22;22913;51.910;8.374;2023-04-24T02:48:45;10.70;99.90
37002;DHT22;22913;51.910;8.374;2023-04-24T02:51:30;10.60;99.90
37002;DHT22;22913;51.910;8.374;2023-04-24T02:54:16;10.50;99.90
37002;DHT22;22913;51.910;8.374;2023-04-24T02:57:02;10.40;99.90
37002;DHT22;22913;51.910;8.374;2023-04-24T02:59:47;10.40;99.90
37002;DHT22;22913;51.910;8.374;2023-04-24T03:02:34;10.50;99.90
37002;DHT22;22913;51.910;8.374;2023-04-24T03:05:20;10.50;99.90
37002;DHT22;22913;51.910;8.374;2023-04-24T03:08:06;10.50;99.90
37002;DHT22;22913;51.910;8.374;2023-04-24T03:10:51;10.50;99.90
37002;DHT22;22913;51.910;8.374;2023-04-24T03:13:37;10.50;99.90
37002;DHT22;22913;51.910;8.374;2023-04-24T03:16:23;10.60;99.90
37002;DHT22;22913;51.910;8.374;2023-04-24T03:19:10;10.60;99.90
37002;DHT22;22913;51.910;8.374;2023-04-24T03:21:55;10.70;99.90
37002;DHT22;22913;51.910;8.374;2023-04-24T03:24:41;10.80;99.90
37002;DHT22;22913;51.910;8.374;2023-04-24T03:27:26;10.70;99.90
37002;DHT22;22913;51.910;8.374;2023-04-24T03:30:12;10.80;99.90
37002;DHT22;22913;51.910;8.374;2023-04-24T03:32:58;10.70;99.90
37002;DHT22;22913;51.910;8.374;2023-04-24T03:35:45;10.70;99.90
37002;DHT22;22913;51.910;8.374;2023-04-24T03:38:30;10.70;99.90
37002;DHT22;22913;51.910;8.374;2023-04-24T03:41:16;10.70;99.90
37002;DHT22;22913;51.910;8.374;2023-04-24T03:44:02;10.70;99.90
37002;DHT22;22913;51.910;8.374;2023-04-24T03:46:47;10.70;99.90
37002;DHT22;22913;51.910;8.374;2023-04-24T03:49:33;10.70;99.90
37002;DHT22;22913;51.910;8.374;2023-04-24T03:52:20;10.70;99.90
37002;DHT22;22913;51.910;8.374;2023-04-24T03:55:07;10.60;99.90
37002;DHT22;22913;51.910;8.374;2023-04-24T03:57:52;10.60;99.90
37002;DHT22;22913;51.910;8.374;2023-04-24T04:00:38;10.60;99.90
37002;DHT22;22913;51.910;8.374;2023-04-24T04:03:24;10.60;99.90
37002;DHT22;22913;51.910;8.374;2023-04-24T04:06:10;10.60;99.90
37002;DHT22;22913;51.910;8.374;2023-04-24T04:08:58;10.70;99.90
37002;DHT22;22913;51.910;8.374;2023-04-24T04:11:44;10.60;99.90
37002;DHT22;22913;51.910;8.374;2023-04-24T04:14:30;10.70;99.90
37002;DHT22;22913;51.910;8.374;2023-04-24T04:17:15;10.70;99.90
37002;DHT22;22913;51.910;8.374;2023-04-24T04:20:01;10.80;99.90
37002;DHT22;22913;51.910;8.374;2023-04-24T04:22:51;10.70;99.90
37002;DHT22;22913;51.910;8.374;2023-04-24T04:25:38;10.80;99.90
37002;DHT22;22913;51.910;8.374;2023-04-24T04:28:23;10.70;99.90
37002;DHT22;22913;51.910;8.374;2023-04-24T04:31:09;10.70;99.90
37002;DHT22;22913;51.910;8.374;2023-04-24T04:33:55;10.70;99.90
37002;DHT22;22913;51.910;8.374;2023-04-24T04:36:41;10.60;99.90
37002;DHT22;22913;51.910;8.374;2023-04-24T04:39:28;10.60;99.90
37002;DHT22;22913;51.910;8.374;2023-04-24T04:42:16;10.50;99.90
37002;DHT22;22913;51.910;8.374;2023-04-24T04:45:03;10.40;99.90
37002;DHT22;22913;51.910;8.374;2023-04-24T04:47:49;10.20;99.90
37002;DHT22;22913;51.910;8.374;2023-04-24T04:50:34;10.20;99.90
37002;DHT22;22913;51.910;8.374;2023-04-24T04:53:20;10.20;99.90
37002;DHT22;22913;51.910;8.374;2023-04-24T04:56:06;10.20;99.90
37002;DHT22;22913;51.910;8.374;2023-04-24T04:58:53;10.20;99.90
37002;DHT22;22913;51.910;8.374;2023-04-24T05:01:38;10.10;99.90
37002;DHT22;22913;51.910;8.374;2023-04-24T05:04:24;10.10;99.90
37002;DHT22;22913;51.910;8.374;2023-04-24T05:07:10;10.10;99.90
37002;DHT22;22913;51.910;8.374;2023-04-24T05:09:55;10.10;99.90
37002;DHT22;22913;51.910;8.374;2023-04-24T05:12:41;10.10;99.90
37002;DHT22;22913;51.910;8.374;2023-04-24T05:15:29;10.10;99.90
37002;DHT22;22913;51.910;8.374;2023-04-24T05:18:14;10.10;99.90
37002;DHT22;22913;51.910;8.374;2023-04-24T05:21:00;10.20;99.90
37002;DHT22;22913;51.910;8.374;2023-04-24T05:23:46;10.20;99.90
37002;DHT22;22913;51.910;8.374;2023-04-24T05:26:32;10.10;99.90
37002;DHT22;22913;51.910;8.374;2023-04-24T05:29:18;10.10;99.90
37002;DHT22;22913;51.910;8.374;2023-04-24T05:32:06;10.20;99.90
37002;DHT22;22913;51.910;8.374;2023-04-24T05:34:52;10.10;99.90
37002;DHT22;22913;51.910;8.374;2023-04-24T05:37:38;10.10;99.90
37002;DHT22;22913;51.910;8.374;2023-04-24T05:40:24;10.20;99.90
37002;DHT22;22913;51.910;8.374;2023-04-24T05:43:09;10.20;99.90
37002;DHT22;22913;51.910;8.374;2023-04-24T05:45:55;10.20;99.90
37002;DHT22;22913;51.910;8.374;2023-04-24T05:48:43;10.20;99.90
37002;DHT22;22913;51.910;8.374;2023-04-24T05:51:28;10.20;99.90
37002;DHT22;22913;51.910;8.374;2023-04-24T05:54:14;10.20;99.90
37002;DHT22;22913;51.910;8.374;2023-04-24T05:57:00;10.20;99.90
37002;DHT22;22913;51.910;8.374;2023-04-24T05:59:48;10.20;99.90
37002;DHT22;22913;51.910;8.374;2023-04-24T06:02:35;10.20;99.90
37002;DHT22;22913;51.910;8.374;2023-04-24T06:05:22;10.30;99.90
37002;DHT22;22913;51.910;8.374;2023-04-24T06:08:08;10.30;99.90
37002;DHT22;22913;51.910;8.374;2023-04-24T06:10:53;10.30;99.90
37002;DHT22;22913;51.910;8.374;2023-04-24T06:13:39;10.30;99.90
37002;DHT22;22913;51.910;8.374;2023-04-24T06:16:26;10.30;99.90
37002;DHT22;22913;51.910;8.374;2023-04-24T06:19:12;10.30;99.90
37002;DHT22;22913;51.910;8.374;2023-04-24T06:21:59;10.30;99.90
37002;DHT22;22913;51.910;8.374;2023-04-24T06:24:45;10.40;99.90
37002;DHT22;22913;51.910;8.374;2023-04-24T06:27:32;10.30;99.90
37002;DHT22;22913;51.910;8.374;2023-04-24T06:30:19;10.40;99.90
37002;DHT22;22913;51.910;8.374;2023-04-24T06:33:05;10.30;99.90
37002;DHT22;22913;51.910;8.374;2023-04-24T06:35:51;10.40;99.90
37002;DHT22;22913;51.910;8.374;2023-04-24T06:38:39;10.40;99.90
37002;DHT22;22913;51.910;8.374;2023-04-24T06:41:25;10.40;99.90
37002;DHT22;22913;51.910;8.374;2023-04-24T06:44:11;10.40;99.90
37002;DHT22;22913;51.910;8.374;2023-04-24T06:46:58;10.40;99.90
37002;DHT22;22913;51.910;8.374;2023-04-24T06:49:44;10.40;99.90
37002;DHT22;22913;51.910;8.374;2023-04-24T06:52:30;10.50;99.90
37002;DHT22;22913;51.910;8.374;2023-04-24T06:55:18;10.40;99.90
37002;DHT22;22913;51.910;8.374;2023-04-24T06:58:04;10.50;99.90
37002;DHT22;22913;51.910;8.374;2023-04-24T07:00:50;10.50;99.90
37002;DHT22;22913;51.910;8.374;2023-04-24T07:03:36;10.50;99.90
37002;DHT22;22913;51.910;8.374;2023-04-24T07:06:22;10.40;99.90
37002;DHT22;22913;51.910;8.374;2023-04-24T07:09:08;10.50;99.90
37002;DHT22;22913;51.910;8.374;2023-04-24T07:11:55;10.50;99.90
37002;DHT22;22913;51.910;8.374;2023-04-24T07:14:41;10.40;99.90
37002;DHT22;22913;51.910;8.374;2023-04-24T07:17:27;10.50;99.90
37002;DHT22;22913;51.910;8.374;2023-04-24T07:20:13;10.50;99.90
37002;DHT22;22913;51.910;8.374;2023-04-24T07:22:59;10.50;99.90
37002;DHT22;22913;51.910;8.374;2023-04-24T07:25:45;10.60;99.90
37002;DHT22;22913;51.910;8.374;2023-04-24T07:28:32;10.60;99.90
37002;DHT22;22913;51.910;8.374;2023-04-24T07:31:18;10.60;99.90
37002;DHT22;22913;51.910;8.374;2023-04-24T07:34:03;10.50;99.90
37002;DHT22;22913;51.910;8.374;2023-04-24T07:36:49;10.50;99.90
37002;DHT22;22913;51.910;8.374;2023-04-24T07:39:35;10.50;99.90
37002;DHT22;22913;51.910;8.374;2023-04-24T07:42:21;10.50;99.90
37002;DHT22;22913;51.910;8.374;2023-04-24T07:45:08;10.50;99.90
37002;DHT22;22913;51.910;8.374;2023-04-24T07:47:54;10.50;99.90
37002;DHT22;22913;51.910;8.374;2023-04-24T07:50:40;10.60;99.90
37002;DHT22;22913;51.910;8.374;2023-04-24T07:53:25;10.60;99.90
37002;DHT22;22913;51.910;8.374;2023-04-24T07:56:11;10.70;99.90
37002;DHT22;22913;51.910;8.374;2023-04-24T07:58:57;10.70;99.90
37002;DHT22;22913;51.910;8.374;2023-04-24T08:01:43;10.70;99.90
37002;DHT22;22913;51.910;8.374;2023-04-24T08:04:29;10.70;99.90
37002;DHT22;22913;51.910;8.374;2023-04-24T08:07:15;10.60;99.90
37002;DHT22;22913;51.910;8.374;2023-04-24T08:10:01;10.60;99.90
37002;DHT22;22913;51.910;8.374;2023-04-24T08:12:46;10.50;99.90
37002;DHT22;22913;51.910;8.374;2023-04-24T08:15:32;10.50;99.90
37002;DHT22;22913;51.910;8.374;2023-04-24T08:18:19;10.50;99.90
37002;DHT22;22913;51.910;8.374;2023-04-24T08:21:05;10.60;99.90
37002;DHT22;22913;51.910;8.374;2023-04-24T08:23:51;10.70;99.90
37002;DHT22;22913;51.910;8.374;2023-04-24T08:26:37;10.70;99.90
37002;DHT22;22913;51.910;8.374;2023-04-24T08:29:22;10.60;99.90
37002;DHT22;22913;51.910;8.374;2023-04-24T08:32:08;10.60;99.90
37002;DHT22;22913;51.910;8.374;2023-04-24T08:34:55;10.70;99.90
37002;DHT22;22913;51.910;8.374;2023-04-24T08:37:41;10.70;99.90
37002;DHT22;22913;51.910;8.374;2023-04-24T08:40:28;10.80;99.90
37002;DHT22;22913;51.910;8.374;2023-04-24T08:43:15;10.60;99.90
37002;DHT22;22913;51.910;8.374;2023-04-24T08:46:01;10.60;99.90
37002;DHT22;22913;51.910;8.374;2023-04-24T08:48:48;10.60;99.90
37002;DHT22;22913;51.910;8.374;2023-04-24T08:51:36;10.70;99.90
37002;DHT22;22913;51.910;8.374;2023-04-24T08:54:23;10.70;99.90
37002;DHT22;22913;51.910;8.374;2023-04-24T08:57:10;10.70;99.90
37002;DHT22;22913;51.910;8.374;2023-04-24T08:59:58;10.60;99.90
37002;DHT22;22913;51.910;8.374;2023-04-24T09:02:45;10.60;99.90
37002;DHT22;22913;51.910;8.374;2023-04-24T09:05:32;10.60;99.90
37002;DHT22;22913;51.910;8.374;2023-04-24T09:08:19;10.60;99.90
37002;DHT22;22913;51.910;8.374;2023-04-24T09:11:05;10.50;99.90
37002;DHT22;22913;51.910;8.374;2023-04-24T09:13:51;10.50;99.90
37002;DHT22;22913;51.910;8.374;2023-04-24T09:16:37;10.50;99.90
37002;DHT22;22913;51.910;8.374;2023-04-24T09:19:23;10.50;99.90
37002;DHT22;22913;51.910;8.374;2023-04-24T09:22:09;10.50;99.90
37002;DHT22;22913;51.910;8.374;2023-04-24T09:25:02;10.70;99.90
37002;DHT22;22913;51.910;8.374;2023-04-24T09:27:48;10.80;99.90
37002;DHT22;22913;51.910;8.374;2023-04-24T09:30:33;11.00;99.90
37002;DHT22;22913;51.910;8.374;2023-04-24T09:33:19;11.10;99.90
37002;DHT22;22913;51.910;8.374;2023-04-24T09:36:05;11.00;99.90
37002;DHT22;22913;51.910;8.374;2023-04-24T09:38:57;11.00;99.90
37002;DHT22;22913;51.910;8.374;2023-04-24T09:41:48;11.00;99.90
37002;DHT22;22913;51.910;8.374;2023-04-24T09:44:34;11.00;99.90
37002;DHT22;22913;51.910;8.374;2023-04-24T09:47:20;10.60;99.90
37002;DHT22;22913;51.910;8.374;2023-04-24T09:50:10;10.50;99.90
37002;DHT22;22913;51.910;8.374;2023-04-24T09:52:58;10.40;99.90
37002;DHT22;22913;51.910;8.374;2023-04-24T09:55:45;10.20;99.90
37002;DHT22;22913;51.910;8.374;2023-04-24T09:58:35;10.20;99.90
37002;DHT22;22913;51.910;8.374;2023-04-24T10:01:30;10.20;99.90
37002;DHT22;22913;51.910;8.374;2023-04-24T10:04:17;10.10;99.90
37002;DHT22;22913;51.910;8.374;2023-04-24T10:07:03;10.00;99.90
37002;DHT22;22913;51.910;8.374;2023-04-24T10:09:51;10.10;99.90
37002;DHT22;22913;51.910;8.374;2023-04-24T10:12:37;10.00;99.90
37002;DHT22;22913;51.910;8.374;2023-04-24T10:15:24;10.10;99.90
37002;DHT22;22913;51.910;8.374;2023-04-24T10:18:11;10.10;99.90
37002;DHT22;22913;51.910;8.374;2023-04-24T10:20:57;10.10;99.90
37002;DHT22;22913;51.910;8.374;2023-04-24T10:23:45;10.10;99.90
37002;DHT22;22913;51.910;8.374;2023-04-24T10:26:31;10.00;99.90
37002;DHT22;22913;51.910;8.374;2023-04-24T10:29:18;9.90;99.90
37002;DHT22;22913;51.910;8.374;2023-04-24T10:32:08;10.00;99.90
37002;DHT22;22913;51.910;8.374;2023-04-24T10:34:55;9.90;99.90
37002;DHT22;22913;51.910;8.374;2023-04-24T10:37:45;10.00;99.90
37002;DHT22;22913;51.910;8.374;2023-04-24T10:40:33;10.00;99.90
37002;DHT22;22913;51.910;8.374;2023-04-24T10:43:19;9.90;99.90
37002;DHT22;22913;51.910;8.374;2023-04-24T10:46:05;9.80;99.90
37002;DHT22;22913;51.910;8.374;2023-04-24T10:48:54;9.80;99.90
37002;DHT22;22913;51.910;8.374;2023-04-24T10:51:45;9.70;99.90
37002;DHT22;22913;51.910;8.374;2023-04-24T10:54:35;9.60;99.90
37002;DHT22;22913;51.910;8.374;2023-04-24T10:57:28;9.60;99.90
37002;DHT22;22913;51.910;8.374;2023-04-24T11:00:19;9.40;99.90
37002;DHT22;22913;51.910;8.374;2023-04-24T11:03:05;9.20;99.90
37002;DHT22;22913;51.910;8.374;2023-04-24T11:06:00;9.10;99.90
37002;DHT22;22913;51.910;8.374;2023-04-24T11:08:46;9.20;99.90
37002;DHT22;22913;51.910;8.374;2023-04-24T11:11:36;9.20;99.90
37002;DHT22;22913;51.910;8.374;2023-04-24T11:14:23;9.20;99.90
37002;DHT22;22913;51.910;8.374;2023-04-24T11:17:28;9.30;99.90
37002;DHT22;22913;51.910;8.374;2023-04-24T11:20:17;9.30;99.90
37002;DHT22;22913;51.910;8.374;2023-04-24T11:23:04;9.30;99.90
37002;DHT22;22913;51.910;8.374;2023-04-24T11:26:13;9.30;99.90
37002;DHT22;22913;51.910;8.374;2023-04-24T11:29:07;9.30;99.90
37002;DHT22;22913;51.910;8.374;2023-04-24T11:31:52;9.30;99.90
37002;DHT22;22913;51.910;8.374;2023-04-24T11:34:38;9.40;99.90
37002;DHT22;22913;51.910;8.374;2023-04-24T11:37:26;9.40;99.90
37002;DHT22;22913;51.910;8.374;2023-04-24T11:40:15;9.30;99.90
37002;DHT22;22913;51.910;8.374;2023-04-24T11:43:01;9.20;99.90
37002;DHT22;22913;51.910;8.374;2023-04-24T11:45:49;9.30;99.90
37002;DHT22;22913;51.910;8.374;2023-04-24T11:48:35;9.30;99.90
37002;DHT22;22913;51.910;8.374;2023-04-24T11:51:24;9.40;99.90
37002;DHT22;22913;51.910;8.374;2023-04-24T11:54:10;9.30;99.90
37002;DHT22;22913;51.910;8.374;2023-04-24T11:56:58;9.30;99.90
37002;DHT22;22913;51.910;8.374;2023-04-24T11:59:44;9.00;99.90
37002;DHT22;22913;51.910;8.374;2023-04-24T12:02:30;9.00;99.90
37002;DHT22;22913;51.910;8.374;2023-04-24T12:05:19;8.90;99.90
37002;DHT22;22913;51.910;8.374;2023-04-24T12:08:05;8.90;99.90
37002;DHT22;22913;51.910;8.374;2023-04-24T12:10:51;8.90;99.90
37002;DHT22;22913;51.910;8.374;2023-04-24T12:13:38;8.90;99.90
37002;DHT22;22913;51.910;8.374;2023-04-24T12:16:25;8.70;99.90
37002;DHT22;22913;51.910;8.374;2023-04-24T12:19:11;8.70;99.90
37002;DHT22;22913;51.910;8.374;2023-04-24T12:22:01;8.70;99.90
37002;DHT22;22913;51.910;8.374;2023-04-24T12:25:00;8.70;99.90
37002;DHT22;22913;51.910;8.374;2023-04-24T12:27:51;8.70;99.90
37002;DHT22;22913;51.910;8.374;2023-04-24T12:30:41;8.70;99.90
37002;DHT22;22913;51.910;8.374;2023-04-24T12:33:28;8.70;99.90
37002;DHT22;22913;51.910;8.374;2023-04-24T12:36:17;8.70;99.90
37002;DHT22;22913;51.910;8.374;2023-04-24T12:39:03;8.70;99.90
37002;DHT22;22913;51.910;8.374;2023-04-24T12:41:59;8.70;99.90
37002;DHT22;22913;51.910;8.374;2023-04-24T12:44:47;8.70;99.90
37002;DHT22;22913;51.910;8.374;2023-04-24T12:47:34;8.70;99.90
37002;DHT22;22913;51.910;8.374;2023-04-24T12:50:20;8.70;99.90
37002;DHT22;22913;51.910;8.374;2023-04-24T12:53:08;8.70;99.90
37002;DHT22;22913;51.910;8.374;2023-04-24T12:55:54;8.80;99.90
37002;DHT22;22913;51.910;8.374;2023-04-24T12:58:40;8.70;99.90
37002;DHT22;22913;51.910;8.374;2023-04-24T13:01:26;8.60;99.90
37002;DHT22;22913;51.910;8.374;2023-04-24T13:04:13;8.60;99.90
37002;DHT22;22913;51.910;8.374;2023-04-24T13:06:59;8.70;99.90
37002;DHT22;22913;51.910;8.374;2023-04-24T13:09:47;8.70;99.90
37002;DHT22;22913;51.910;8.374;2023-04-24T13:12:33;8.80;99.90
37002;DHT22;22913;51.910;8.374;2023-04-24T13:15:19;8.80;99.90
37002;DHT22;22913;51.910;8.374;2023-04-24T13:18:04;8.80;99.90
37002;DHT22;22913;51.910;8.374;2023-04-24T13:20:51;8.80;99.90
37002;DHT22;22913;51.910;8.374;2023-04-24T13:23:37;8.90;99.90
37002;DHT22;22913;51.910;8.374;2023-04-24T13:26:23;8.90;99.90
37002;DHT22;22913;51.910;8.374;2023-04-24T13:29:09;8.90;99.90
37002;DHT22;22913;51.910;8.374;2023-04-24T13:31:54;8.90;99.90
37002;DHT22;22913;51.910;8.374;2023-04-24T13:34:40;8.90;99.90
37002;DHT22;22913;51.910;8.374;2023-04-24T13:37:27;8.90;99.90
37002;DHT22;22913;51.910;8.374;2023-04-24T13:40:12;9.00;99.90
37002;DHT22;22913;51.910;8.374;2023-04-24T13:42:58;9.00;99.90
37002;DHT22;22913;51.910;8.374;2023-04-24T13:45:44;9.10;99.90
37002;DHT22;22913;51.910;8.374;2023-04-24T13:48:30;9.10;99.90
37002;DHT22;22913;51.910;8.374;2023-04-24T13:51:15;9.20;99.90
37002;DHT22;22913;51.910;8.374;2023-04-24T13:54:03;9.20;99.90
37002;DHT22;22913;51.910;8.374;2023-04-24T13:56:48;9.20;99.90
37002;DHT22;22913;51.910;8.374;2023-04-24T13:59:34;9.20;99.90
37002;DHT22;22913;51.910;8.374;2023-04-24T14:02:20;9.10;99.90
37002;DHT22;22913;51.910;8.374;2023-04-24T14:05:07;9.10;99.90
37002;DHT22;22913;51.910;8.374;2023-04-24T14:07:55;9.00;99.90
37002;DHT22;22913;51.910;8.374;2023-04-24T14:10:42;9.00;99.90
37002;DHT22;22913;51.910;8.374;2023-04-24T14:13:28;9.00;99.90
37002;DHT22;22913;51.910;8.374;2023-04-24T14:16:13;9.10;99.90
37002;DHT22;22913;51.910;8.374;2023-04-24T14:18:59;9.00;99.90
37002;DHT22;22913;51.910;8.374;2023-04-24T14:21:45;9.10;99.90
37002;DHT22;22913;51.910;8.374;2023-04-24T14:24:31;9.00;99.90
37002;DHT22;22913;51.910;8.374;2023-04-24T14:27:18;9.00;99.90
37002;DHT22;22913;51.910;8.374;2023-04-24T14:30:05;9.10;99.90
37002;DHT22;22913;51.910;8.374;2023-04-24T14:32:51;9.10;99.90
37002;DHT22;22913;51.910;8.374;2023-04-24T14:35:36;9.20;99.90
37002;DHT22;22913;51.910;8.374;2023-04-24T14:38:22;9.20;99.90
37002;DHT22;22913;51.910;8.374;2023-04-24T14:41:08;9.30;99.90
37002;DHT22;22913;51.910;8.374;2023-04-24T14:43:55;9.30;99.90
37002;DHT22;22913;51.910;8.374;2023-04-24T14:46:41;9.20;99.90
37002;DHT22;22913;51.910;8.374;2023-04-24T14:49:27;9.30;99.90
37002;DHT22;22913;51.910;8.374;2023-04-24T14:52:13;9.30;99.90
37002;DHT22;22913;51.910;8.374;2023-04-24T14:54:58;9.20;99.90
37002;DHT22;22913;51.910;8.374;2023-04-24T14:57:44;9.20;99.90
37002;DHT22;22913;51.910;8.374;2023-04-24T15:00:31;9.20;99.90
37002;DHT22;22913;51.910;8.374;2023-04-24T15:03:17;9.20;99.90
37002;DHT22;22913;51.910;8.374;2023-04-24T15:06:03;9.20;99.90
37002;DHT22;22913;51.910;8.374;2023-04-24T15:08:49;9.30;99.90
37002;DHT22;22913;51.910;8.374;2023-04-24T15:11:35;9.30;99.90
37002;DHT22;22913;51.910;8.374;2023-04-24T15:14:20;9.40;99.90
37002;DHT22;22913;51.910;8.374;2023-04-24T15:17:07;9.50;99.90
37002;DHT22;22913;51.910;8.374;2023-04-24T15:19:53;9.60;99.90
37002;DHT22;22913;51.910;8.374;2023-04-24T15:22:39;9.60;99.90
37002;DHT22;22913;51.910;8.374;2023-04-24T15:25:25;9.70;99.90
37002;DHT22;22913;51.910;8.374;2023-04-24T15:28:11;9.70;99.90
37002;DHT22;22913;51.910;8.374;2023-04-24T15:30:56;9.80;99.90
37002;DHT22;22913;51.910;8.374;2023-04-24T15:33:44;9.80;99.90
37002;DHT22;22913;51.910;8.374;2023-04-24T15:36:29;10.00;99.90
37002;DHT22;22913;51.910;8.374;2023-04-24T15:39:15;10.00;99.90
37002;DHT22;22913;51.910;8.374;2023-04-24T15:42:01;10.00;99.90
37002;DHT22;22913;51.910;8.374;2023-04-24T15:44:47;10.00;99.90
37002;DHT22;22913;51.910;8.374;2023-04-24T15:47:33;9.90;99.90
37002;DHT22;22913;51.910;8.374;2023-04-24T15:50:20;9.90;99.90
37002;DHT22;22913;51.910;8.374;2023-04-24T15:53:07;9.70;99.90
37002;DHT22;22913;51.910;8.374;2023-04-24T15:55:53;9.80;99.90
37002;DHT22;22913;51.910;8.374;2023-04-24T15:58:40;9.80;99.90
37002;DHT22;22913;51.910;8.374;2023-04-24T16:01:26;9.80;99.90
37002;DHT22;22913;51.910;8.374;2023-04-24T16:04:12;9.80;99.90
37002;DHT22;22913;51.910;8.374;2023-04-24T16:06:59;9.90;99.90
37002;DHT22;22913;51.910;8.374;2023-04-24T16:09:45;9.90;99.90
37002;DHT22;22913;51.910;8.374;2023-04-24T16:12:30;9.90;99.90
37002;DHT22;22913;51.910;8.374;2023-04-24T16:15:16;10.00;99.90
37002;DHT22;22913;51.910;8.374;2023-04-24T16:18:02;9.90;99.90
37002;DHT22;22913;51.910;8.374;2023-04-24T16:20:47;9.90;99.90
37002;DHT22;22913;51.910;8.374;2023-04-24T16:23:35;10.10;99.90
37002;DHT22;22913;51.910;8.374;2023-04-24T16:26:20;10.00;99.90
37002;DHT22;22913;51.910;8.374;2023-04-24T16:29:06;10.00;99.90
37002;DHT22;22913;51.910;8.374;2023-04-24T16:31:52;10.10;99.90
37002;DHT22;22913;51.910;8.374;2023-04-24T16:34:37;10.20;99.90
37002;DHT22;22913;51.910;8.374;2023-04-24T16:37:23;10.20;99.90
37002;DHT22;22913;51.910;8.374;2023-04-24T16:40:11;10.10;99.90
37002;DHT22;22913;51.910;8.374;2023-04-24T16:42:56;9.90;99.90
37002;DHT22;22913;51.910;8.374;2023-04-24T16:45:42;9.90;99.90
37002;DHT22;22913;51.910;8.374;2023-04-24T16:48:28;9.90;99.90
37002;DHT22;22913;51.910;8.374;2023-04-24T16:51:14;9.80;99.90
37002;DHT22;22913;51.910;8.374;2023-04-24T16:54:00;9.80;99.90
37002;DHT22;22913;51.910;8.374;2023-04-24T16:56:47;9.80;99.90
37002;DHT22;22913;51.910;8.374;2023-04-24T16:59:33;9.90;99.90
37002;DHT22;22913;51.910;8.374;2023-04-24T17:02:20;9.90;99.90
37002;DHT22;22913;51.910;8.374;2023-04-24T17:05:06;9.90;99.90
37002;DHT22;22913;51.910;8.374;2023-04-24T17:07:52;9.90;99.90
37002;DHT22;22913;51.910;8.374;2023-04-24T17:10:37;10.00;99.90
37002;DHT22;22913;51.910;8.374;2023-04-24T17:13:25;10.00;99.90
37002;DHT22;22913;51.910;8.374;2023-04-24T17:16:11;10.00;99.90
37002;DHT22;22913;51.910;8.374;2023-04-24T17:18:56;9.90;99.90
37002;DHT22;22913;51.910;8.374;2023-04-24T17:21:42;9.90;99.90
37002;DHT22;22913;51.910;8.374;2023-04-24T17:24:29;10.00;99.90
37002;DHT22;22913;51.910;8.374;2023-04-24T17:27:14;10.00;99.90
37002;DHT22;22913;51.910;8.374;2023-04-24T17:30:01;9.90;99.90
37002;DHT22;22913;51.910;8.374;2023-04-24T17:32:47;9.90;99.90
37002;DHT22;22913;51.910;8.374;2023-04-24T17:35:32;10.00;99.90
37002;DHT22;22913;51.910;8.374;2023-04-24T17:38:19;10.00;99.90